sensor_id;sensor_type;location;lat;lon;timestamp;noise_LAeq;noise_LA_min;noise_LA_max;noise_LA01;noise_LA95
72160;Laerm;60045;51.792;10.938;2023-05-29T00:01:20;55.31;27.61;70.67;;
72160;Laerm;60045;51.792;10.938;2023-05-29T00:03:49;57.48;30.99;72.80;;
72160;Laerm;60045;51.792;10.938;2023-05-29T00:06:14;53.17;27.98;69.05;;
72160;Laerm;60045;51.792;10.938;2023-05-29T00:08:40;31.43;27.97;40.67;;
72160;Laerm;60045;51.792;10.938;2023-05-29T00:11:06;54.98;27.83;67.97;;
72160;Laerm;60045;51.792;10.938;2023-05-29T00:13:32;29.62;27.62;37.25;;
72160;Laerm;60045;51.792;10.938;2023-05-29T00:15:58;52.74;27.91;69.04;;
72160;Laerm;60045;51.792;10.938;2023-05-29T00:18:25;28.85;27.60;33.76;;
72160;Laerm;60045;51.792;10.938;2023-05-29T00:20:51;54.86;28.05;72.18;;
72160;Laerm;60045;51.792;10.938;2023-05-29T00:23:18;30.50;28.03;37.50;;
72160;Laerm;60045;51.792;10.938;2023-05-29T00:25:44;53.16;28.04;68.92;;
72160;Laerm;60045;51.792;10.938;2023-05-29T00:28:09;48.59;28.34;65.28;;
72160;Laerm;60045;51.792;10.938;2023-05-29T00:30:37;29.31;27.87;35.62;;
72160;Laerm;60045;51.792;10.938;2023-05-29T00:33:02;53.87;28.05;68.36;;
72160;Laerm;60045;51.792;10.938;2023-05-29T00:35:28;50.12;28.19;65.69;;
72160;Laerm;60045;51.792;10.938;2023-05-29T00:37:54;52.51;28.27;69.84;;
72160;Laerm;60045;51.792;10.938;2023-05-29T00:40:20;51.01;28.72;68.16;;
72160;Laerm;60045;51.792;10.938;2023-05-29T00:42:46;29.29;28.01;36.63;;
72160;Laerm;60045;51.792;10.938;2023-05-29T00:45:12;28.89;27.42;33.81;;
72160;Laerm;60045;51.792;10.938;2023-05-29T00:47:38;54.90;27.89;69.13;;
72160;Laerm;60045;51.792;10.938;2023-05-29T00:50:05;52.28;28.64;68.68;;
72160;Laerm;60045;51.792;10.938;2023-05-29T00:52:31;57.51;29.08;71.76;;
72160;Laerm;60045;51.792;10.938;2023-05-29T00:54:57;31.15;28.25;38.61;;
72160;Laerm;60045;51.792;10.938;2023-05-29T00:57:26;54.30;28.84;69.20;;
72160;Laerm;60045;51.792;10.938;2023-05-29T00:59:51;53.16;29.05;69.20;;
72160;Laerm;60045;51.792;10.938;2023-05-29T01:02:18;30.03;28.37;34.11;;
72160;Laerm;60045;51.792;10.938;2023-05-29T01:04:45;29.32;28.37;32.91;;
72160;Laerm;60045;51.792;10.938;2023-05-29T01:07:11;28.86;27.84;35.03;;
72160;Laerm;60045;51.792;10.938;2023-05-29T01:09:37;29.12;27.34;38.92;;
72160;Laerm;60045;51.792;10.938;2023-05-29T01:15:04;57.86;27.66;76.65;;
72160;Laerm;60045;51.792;10.938;2023-05-29T01:23:06;28.33;27.52;32.01;;
72160;Laerm;60045;51.792;10.938;2023-05-29T01:25:46;29.73;27.86;34.27;;
72160;Laerm;60045;51.792;10.938;2023-05-29T01:28:16;51.76;27.46;69.28;;
72160;Laerm;60045;51.792;10.938;2023-05-29T01:30:45;49.47;27.44;65.75;;
72160;Laerm;60045;51.792;10.938;2023-05-29T01:33:12;51.87;27.46;70.26;;
72160;Laerm;60045;51.792;10.938;2023-05-29T01:35:38;54.99;27.87;73.51;;
72160;Laerm;60045;51.792;10.938;2023-05-29T01:38:03;28.91;27.52;38.14;;
72160;Laerm;60045;51.792;10.938;2023-05-29T01:40:29;28.66;27.60;31.98;;
72160;Laerm;60045;51.792;10.938;2023-05-29T01:42:55;28.90;27.99;31.55;;
72160;Laerm;60045;51.792;10.938;2023-05-29T01:45:21;28.54;27.66;29.51;;
72160;Laerm;60045;51.792;10.938;2023-05-29T01:47:47;28.42;27.62;30.53;;
72160;Laerm;60045;51.792;10.938;2023-05-29T01:50:13;28.53;27.52;32.06;;
72160;Laerm;60045;51.792;10.938;2023-05-29T01:52:40;52.38;27.97;69.60;;
72160;Laerm;60045;51.792;10.938;2023-05-29T01:55:06;30.42;28.09;38.66;;
72160;Laerm;60045;51.792;10.938;2023-05-29T01:57:32;30.43;28.37;38.40;;
72160;Laerm;60045;51.792;10.938;2023-05-29T01:59:58;30.15;28.06;37.33;;
72160;Laerm;60045;51.792;10.938;2023-05-29T02:02:23;36.73;28.27;49.17;;
72160;Laerm;60045;51.792;10.938;2023-05-29T02:04:49;43.24;29.79;52.06;;
72160;Laerm;60045;51.792;10.938;2023-05-29T02:07:16;44.03;30.75;53.07;;
72160;Laerm;60045;51.792;10.938;2023-05-29T02:09:42;44.56;31.26;57.67;;
72160;Laerm;60045;51.792;10.938;2023-05-29T02:12:08;45.91;33.45;57.05;;
72160;Laerm;60045;51.792;10.938;2023-05-29T02:14:34;51.92;37.91;62.45;;
72160;Laerm;60045;51.792;10.938;2023-05-29T02:16:59;52.73;38.11;63.31;;
72160;Laerm;60045;51.792;10.938;2023-05-29T02:19:26;55.75;38.75;72.04;;
72160;Laerm;60045;51.792;10.938;2023-05-29T02:21:53;53.98;38.73;68.04;;
72160;Laerm;60045;51.792;10.938;2023-05-29T02:24:19;51.16;36.33;63.30;;
72160;Laerm;60045;51.792;10.938;2023-05-29T02:26:47;55.14;39.32;65.67;;
72160;Laerm;60045;51.792;10.938;2023-05-29T02:29:13;54.86;39.36;65.07;;
72160;Laerm;60045;51.792;10.938;2023-05-29T02:31:39;53.67;39.98;66.61;;
72160;Laerm;60045;51.792;10.938;2023-05-29T02:34:05;51.02;38.57;61.43;;
72160;Laerm;60045;51.792;10.938;2023-05-29T02:36:31;51.89;40.09;62.58;;
72160;Laerm;60045;51.792;10.938;2023-05-29T02:38:57;52.16;35.99;61.92;;
72160;Laerm;60045;51.792;10.938;2023-05-29T02:41:23;52.17;36.85;63.15;;
72160;Laerm;60045;51.792;10.938;2023-05-29T02:43:48;52.74;35.70;62.08;;
72160;Laerm;60045;51.792;10.938;2023-05-29T02:46:14;52.05;37.81;61.13;;
72160;Laerm;60045;51.792;10.938;2023-05-29T02:48:40;53.56;37.27;67.50;;
72160;Laerm;60045;51.792;10.938;2023-05-29T02:51:05;49.51;38.30;59.01;;
72160;Laerm;60045;51.792;10.938;2023-05-29T02:53:31;51.20;36.63;64.04;;
72160;Laerm;60045;51.792;10.938;2023-05-29T02:55:57;56.06;34.11;71.76;;
72160;Laerm;60045;51.792;10.938;2023-05-29T02:58:23;50.13;35.07;61.54;;
72160;Laerm;60045;51.792;10.938;2023-05-29T03:00:48;54.15;32.66;67.68;;
72160;Laerm;60045;51.792;10.938;2023-05-29T03:03:15;53.27;34.59;66.18;;
72160;Laerm;60045;51.792;10.938;2023-05-29T03:05:41;52.40;35.71;64.97;;
72160;Laerm;60045;51.792;10.938;2023-05-29T03:08:06;47.50;33.55;60.91;;
72160;Laerm;60045;51.792;10.938;2023-05-29T03:10:32;48.41;31.26;60.22;;
72160;Laerm;60045;51.792;10.938;2023-05-29T03:12:58;55.79;32.55;72.83;;
72160;Laerm;60045;51.792;10.938;2023-05-29T03:15:24;55.29;33.78;71.30;;
72160;Laerm;60045;51.792;10.938;2023-05-29T03:17:49;58.25;33.54;73.70;;
72160;Laerm;60045;51.792;10.938;2023-05-29T03:20:15;55.26;35.49;73.31;;
72160;Laerm;60045;51.792;10.938;2023-05-29T03:22:41;50.66;33.58;64.74;;
72160;Laerm;60045;51.792;10.938;2023-05-29T03:25:07;44.68;32.22;55.39;;
72160;Laerm;60045;51.792;10.938;2023-05-29T03:27:32;52.00;33.01;67.01;;
72160;Laerm;60045;51.792;10.938;2023-05-29T03:29:58;59.28;32.95;77.02;;
72160;Laerm;60045;51.792;10.938;2023-05-29T03:32:24;47.32;31.14;58.12;;
72160;Laerm;60045;51.792;10.938;2023-05-29T03:34:50;56.61;34.06;69.68;;
72160;Laerm;60045;51.792;10.938;2023-05-29T03:37:16;58.47;34.75;72.22;;
72160;Laerm;60045;51.792;10.938;2023-05-29T03:39:42;46.29;31.60;59.07;;
72160;Laerm;60045;51.792;10.938;2023-05-29T03:42:07;57.93;34.68;74.25;;
72160;Laerm;60045;51.792;10.938;2023-05-29T03:44:33;47.67;33.83;61.24;;
72160;Laerm;60045;51.792;10.938;2023-05-29T03:46:59;50.23;32.96;61.27;;
72160;Laerm;60045;51.792;10.938;2023-05-29T03:49:25;49.92;32.83;59.54;;
72160;Laerm;60045;51.792;10.938;2023-05-29T03:51:50;55.93;31.78;73.73;;
72160;Laerm;60045;51.792;10.938;2023-05-29T03:54:16;50.62;32.16;59.72;;
72160;Laerm;60045;51.792;10.938;2023-05-29T03:56:42;51.85;35.35;60.89;;
72160;Laerm;60045;51.792;10.938;2023-05-29T03:59:08;49.06;32.24;59.49;;
72160;Laerm;60045;51.792;10.938;2023-05-29T04:01:34;44.56;31.59;54.81;;
72160;Laerm;60045;51.792;10.938;2023-05-29T04:04:00;51.89;32.32;67.68;;
72160;Laerm;60045;51.792;10.938;2023-05-29T04:06:25;47.67;32.27;62.38;;
72160;Laerm;60045;51.792;10.938;2023-05-29T04:08:51;49.21;31.20;59.71;;
72160;Laerm;60045;51.792;10.938;2023-05-29T04:11:17;46.22;31.11;57.78;;
72160;Laerm;60045;51.792;10.938;2023-05-29T04:13:45;54.29;31.55;72.23;;
72160;Laerm;60045;51.792;10.938;2023-05-29T04:16:12;58.25;33.74;71.08;;
72160;Laerm;60045;51.792;10.938;2023-05-29T04:18:38;56.15;33.15;69.90;;
72160;Laerm;60045;51.792;10.938;2023-05-29T04:21:03;49.72;31.33;68.10;;
72160;Laerm;60045;51.792;10.938;2023-05-29T04:23:29;54.22;33.50;66.57;;
72160;Laerm;60045;51.792;10.938;2023-05-29T04:25:55;54.59;31.23;70.76;;
72160;Laerm;60045;51.792;10.938;2023-05-29T04:28:21;53.73;31.39;69.86;;
72160;Laerm;60045;51.792;10.938;2023-05-29T04:30:46;52.36;32.07;66.33;;
72160;Laerm;60045;51.792;10.938;2023-05-29T04:33:12;44.17;31.59;58.79;;
72160;Laerm;60045;51.792;10.938;2023-05-29T04:35:39;58.74;31.13;73.04;;
72160;Laerm;60045;51.792;10.938;2023-05-29T04:38:08;42.81;30.56;57.12;;
72160;Laerm;60045;51.792;10.938;2023-05-29T04:40:34;42.32;31.54;51.29;;
72160;Laerm;60045;51.792;10.938;2023-05-29T04:43:01;53.63;32.12;70.86;;
72160;Laerm;60045;51.792;10.938;2023-05-29T04:45:27;56.51;30.05;75.17;;
72160;Laerm;60045;51.792;10.938;2023-05-29T04:47:53;43.37;31.23;56.93;;
72160;Laerm;60045;51.792;10.938;2023-05-29T04:50:21;40.56;31.18;50.73;;
72160;Laerm;60045;51.792;10.938;2023-05-29T04:52:48;41.23;32.52;50.21;;
72160;Laerm;60045;51.792;10.938;2023-05-29T04:55:13;43.14;32.30;56.40;;
72160;Laerm;60045;51.792;10.938;2023-05-29T04:57:39;52.37;33.08;68.75;;
72160;Laerm;60045;51.792;10.938;2023-05-29T05:00:05;52.56;31.01;72.03;;
72160;Laerm;60045;51.792;10.938;2023-05-29T05:02:38;52.02;31.95;67.14;;
72160;Laerm;60045;51.792;10.938;2023-05-29T05:05:04;46.05;32.34;60.47;;
72160;Laerm;60045;51.792;10.938;2023-05-29T05:07:30;49.01;31.44;63.15;;
72160;Laerm;60045;51.792;10.938;2023-05-29T05:09:56;41.05;30.21;54.75;;
72160;Laerm;60045;51.792;10.938;2023-05-29T05:12:21;50.85;30.72;67.12;;
72160;Laerm;60045;51.792;10.938;2023-05-29T05:14:47;39.71;30.88;52.15;;
72160;Laerm;60045;51.792;10.938;2023-05-29T05:17:13;37.96;31.38;49.00;;
72160;Laerm;60045;51.792;10.938;2023-05-29T05:19:38;50.83;31.45;67.29;;
72160;Laerm;60045;51.792;10.938;2023-05-29T05:22:04;40.66;31.48;57.60;;
72160;Laerm;60045;51.792;10.938;2023-05-29T05:24:30;39.92;30.60;53.57;;
72160;Laerm;60045;51.792;10.938;2023-05-29T05:26:57;54.67;32.53;68.89;;
72160;Laerm;60045;51.792;10.938;2023-05-29T05:29:22;48.12;32.55;59.37;;
72160;Laerm;60045;51.792;10.938;2023-05-29T05:31:48;51.65;33.23;63.05;;
72160;Laerm;60045;51.792;10.938;2023-05-29T05:34:14;53.20;32.84;70.58;;
72160;Laerm;60045;51.792;10.938;2023-05-29T05:36:40;62.89;31.27;81.39;;
72160;Laerm;60045;51.792;10.938;2023-05-29T05:39:06;55.04;32.11;73.64;;
72160;Laerm;60045;51.792;10.938;2023-05-29T05:41:31;40.03;32.04;53.16;;
72160;Laerm;60045;51.792;10.938;2023-05-29T05:43:57;49.90;31.82;64.13;;
72160;Laerm;60045;51.792;10.938;2023-05-29T05:46:23;46.13;32.28;58.99;;
72160;Laerm;60045;51.792;10.938;2023-05-29T05:48:48;52.91;32.30;70.33;;
72160;Laerm;60045;51.792;10.938;2023-05-29T05:51:15;51.38;31.33;67.50;;
72160;Laerm;60045;51.792;10.938;2023-05-29T05:53:41;55.29;32.06;71.54;;
72160;Laerm;60045;51.792;10.938;2023-05-29T05:56:07;47.77;31.60;62.76;;
72160;Laerm;60045;51.792;10.938;2023-05-29T05:58:32;56.43;30.38;73.83;;
72160;Laerm;60045;51.792;10.938;2023-05-29T06:00:58;55.24;31.56;71.36;;
72160;Laerm;60045;51.792;10.938;2023-05-29T06:03:24;52.28;32.32;68.91;;
72160;Laerm;60045;51.792;10.938;2023-05-29T06:05:51;43.42;30.52;60.07;;
72160;Laerm;60045;51.792;10.938;2023-05-29T06:08:17;46.48;30.28;60.29;;
72160;Laerm;60045;51.792;10.938;2023-05-29T06:10:43;54.62;32.21;68.97;;
72160;Laerm;60045;51.792;10.938;2023-05-29T06:13:09;39.46;30.33;49.64;;
72160;Laerm;60045;51.792;10.938;2023-05-29T06:15:35;54.45;31.73;71.49;;
72160;Laerm;60045;51.792;10.938;2023-05-29T06:18:01;39.96;31.78;50.93;;
72160;Laerm;60045;51.792;10.938;2023-05-29T06:20:27;53.71;31.88;69.48;;
72160;Laerm;60045;51.792;10.938;2023-05-29T06:22:53;55.61;33.10;71.03;;
72160;Laerm;60045;51.792;10.938;2023-05-29T06:25:19;54.33;32.72;65.97;;
72160;Laerm;60045;51.792;10.938;2023-05-29T06:27:45;54.40;32.40;66.74;;
72160;Laerm;60045;51.792;10.938;2023-05-29T06:30:11;49.36;31.41;61.30;;
72160;Laerm;60045;51.792;10.938;2023-05-29T06:32:37;57.02;32.74;73.87;;
72160;Laerm;60045;51.792;10.938;2023-05-29T06:35:03;48.01;33.09;62.71;;
72160;Laerm;60045;51.792;10.938;2023-05-29T06:37:31;53.04;30.44;70.19;;
72160;Laerm;60045;51.792;10.938;2023-05-29T06:39:57;50.38;30.60;68.17;;
72160;Laerm;60045;51.792;10.938;2023-05-29T06:42:22;55.33;32.78;72.01;;
72160;Laerm;60045;51.792;10.938;2023-05-29T06:44:48;52.59;31.48;68.57;;
72160;Laerm;60045;51.792;10.938;2023-05-29T06:47:14;45.12;30.83;57.24;;
72160;Laerm;60045;51.792;10.938;2023-05-29T06:49:40;45.13;29.77;60.41;;
72160;Laerm;60045;51.792;10.938;2023-05-29T06:52:05;56.46;33.05;72.38;;
72160;Laerm;60045;51.792;10.938;2023-05-29T06:54:31;50.25;32.64;65.76;;
72160;Laerm;60045;51.792;10.938;2023-05-29T06:56:57;56.64;32.37;71.80;;
72160;Laerm;60045;51.792;10.938;2023-05-29T06:59:23;57.05;31.62;70.72;;
72160;Laerm;60045;51.792;10.938;2023-05-29T07:01:48;54.80;30.67;69.45;;
72160;Laerm;60045;51.792;10.938;2023-05-29T07:04:14;58.26;34.59;70.52;;
72160;Laerm;60045;51.792;10.938;2023-05-29T07:06:40;58.10;32.79;71.43;;
72160;Laerm;60045;51.792;10.938;2023-05-29T07:09:06;57.38;34.20;71.71;;
72160;Laerm;60045;51.792;10.938;2023-05-29T07:11:32;54.71;31.41;68.99;;
72160;Laerm;60045;51.792;10.938;2023-05-29T07:13:58;56.73;34.26;69.59;;
72160;Laerm;60045;51.792;10.938;2023-05-29T07:16:24;68.95;36.35;85.08;;
72160;Laerm;60045;51.792;10.938;2023-05-29T07:18:50;60.77;37.27;73.78;;
72160;Laerm;60045;51.792;10.938;2023-05-29T07:21:16;56.28;30.14;72.53;;
72160;Laerm;60045;51.792;10.938;2023-05-29T07:23:42;60.90;34.21;76.25;;
72160;Laerm;60045;51.792;10.938;2023-05-29T07:26:08;49.67;31.58;64.94;;
72160;Laerm;60045;51.792;10.938;2023-05-29T07:28:34;57.67;33.24;71.35;;
72160;Laerm;60045;51.792;10.938;2023-05-29T07:31:00;58.07;31.80;71.10;;
72160;Laerm;60045;51.792;10.938;2023-05-29T07:33:25;60.58;36.67;75.70;;
72160;Laerm;60045;51.792;10.938;2023-05-29T07:35:51;58.48;35.38;69.10;;
72160;Laerm;60045;51.792;10.938;2023-05-29T07:38:17;57.13;33.71;69.21;;
72160;Laerm;60045;51.792;10.938;2023-05-29T07:40:43;55.99;32.28;69.65;;
72160;Laerm;60045;51.792;10.938;2023-05-29T07:43:09;64.12;30.56;83.62;;
72160;Laerm;60045;51.792;10.938;2023-05-29T07:45:35;59.69;34.15;73.39;;
72160;Laerm;60045;51.792;10.938;2023-05-29T07:48:01;58.82;35.85;73.18;;
72160;Laerm;60045;51.792;10.938;2023-05-29T07:50:27;57.13;36.03;70.17;;
72160;Laerm;60045;51.792;10.938;2023-05-29T07:52:52;57.09;34.22;71.46;;
72160;Laerm;60045;51.792;10.938;2023-05-29T07:55:20;58.69;33.88;71.32;;
72160;Laerm;60045;51.792;10.938;2023-05-29T07:57:46;58.88;33.89;71.48;;
72160;Laerm;60045;51.792;10.938;2023-05-29T08:00:14;64.54;33.69;78.97;;
72160;Laerm;60045;51.792;10.938;2023-05-29T08:02:40;59.82;34.86;71.73;;
72160;Laerm;60045;51.792;10.938;2023-05-29T08:05:07;51.48;33.24;65.16;;
72160;Laerm;60045;51.792;10.938;2023-05-29T08:07:34;60.15;35.62;71.25;;
72160;Laerm;60045;51.792;10.938;2023-05-29T08:09:59;57.92;34.81;71.58;;
72160;Laerm;60045;51.792;10.938;2023-05-29T08:12:25;58.15;33.81;71.43;;
72160;Laerm;60045;51.792;10.938;2023-05-29T08:14:51;57.98;34.49;72.09;;
72160;Laerm;60045;51.792;10.938;2023-05-29T08:17:17;62.50;37.27;79.69;;
72160;Laerm;60045;51.792;10.938;2023-05-29T08:19:42;62.59;36.75;73.75;;
72160;Laerm;60045;51.792;10.938;2023-05-29T08:22:11;65.09;37.64;79.48;;
72160;Laerm;60045;51.792;10.938;2023-05-29T08:24:37;59.46;34.90;70.48;;
72160;Laerm;60045;51.792;10.938;2023-05-29T08:27:03;64.31;38.37;74.03;;
72160;Laerm;60045;51.792;10.938;2023-05-29T08:29:29;63.70;32.95;78.92;;
72160;Laerm;60045;51.792;10.938;2023-05-29T08:31:54;60.55;35.19;71.22;;
72160;Laerm;60045;51.792;10.938;2023-05-29T08:34:20;62.65;38.41;72.27;;
72160;Laerm;60045;51.792;10.938;2023-05-29T08:36:46;62.05;37.31;74.76;;
72160;Laerm;60045;51.792;10.938;2023-05-29T08:39:12;62.08;35.12;72.52;;
72160;Laerm;60045;51.792;10.938;2023-05-29T08:41:59;59.42;34.08;72.05;;
72160;Laerm;60045;51.792;10.938;2023-05-29T08:44:26;64.28;35.75;85.44;;
72160;Laerm;60045;51.792;10.938;2023-05-29T08:46:55;61.97;38.43;71.77;;
72160;Laerm;60045;51.792;10.938;2023-05-29T08:49:21;58.75;34.17;72.85;;
72160;Laerm;60045;51.792;10.938;2023-05-29T08:51:47;67.58;35.11;80.47;;
72160;Laerm;60045;51.792;10.938;2023-05-29T08:54:15;59.96;34.44;74.67;;
72160;Laerm;60045;51.792;10.938;2023-05-29T08:56:41;61.36;35.46;71.41;;
72160;Laerm;60045;51.792;10.938;2023-05-29T08:59:08;63.04;39.04;73.35;;
72160;Laerm;60045;51.792;10.938;2023-05-29T09:01:34;64.47;35.11;79.82;;
72160;Laerm;60045;51.792;10.938;2023-05-29T09:04:00;62.57;37.71;76.22;;
72160;Laerm;60045;51.792;10.938;2023-05-29T09:06:27;61.15;36.08;75.61;;
72160;Laerm;60045;51.792;10.938;2023-05-29T09:08:53;65.57;38.22;85.09;;
72160;Laerm;60045;51.792;10.938;2023-05-29T09:11:19;61.23;39.26;71.34;;
72160;Laerm;60045;51.792;10.938;2023-05-29T09:13:46;61.68;37.08;74.10;;
72160;Laerm;60045;51.792;10.938;2023-05-29T09:16:12;61.28;36.65;71.11;;
72160;Laerm;60045;51.792;10.938;2023-05-29T09:18:38;61.08;36.27;73.83;;
72160;Laerm;60045;51.792;10.938;2023-05-29T09:21:07;63.34;40.78;72.57;;
72160;Laerm;60045;51.792;10.938;2023-05-29T09:23:34;61.51;34.31;72.85;;
72160;Laerm;60045;51.792;10.938;2023-05-29T09:26:01;63.11;38.81;77.57;;
72160;Laerm;60045;51.792;10.938;2023-05-29T09:28:27;56.94;34.21;70.94;;
72160;Laerm;60045;51.792;10.938;2023-05-29T09:30:56;60.51;36.13;71.37;;
72160;Laerm;60045;51.792;10.938;2023-05-29T09:33:22;62.46;37.94;71.49;;
72160;Laerm;60045;51.792;10.938;2023-05-29T09:35:48;64.32;41.48;77.64;;
72160;Laerm;60045;51.792;10.938;2023-05-29T09:38:15;61.65;36.19;75.70;;
72160;Laerm;60045;51.792;10.938;2023-05-29T09:40:42;60.46;39.17;70.87;;
72160;Laerm;60045;51.792;10.938;2023-05-29T09:43:17;62.15;36.45;72.41;;
72160;Laerm;60045;51.792;10.938;2023-05-29T09:45:43;63.30;34.44;75.90;;
72160;Laerm;60045;51.792;10.938;2023-05-29T09:48:17;62.91;39.95;78.83;;
72160;Laerm;60045;51.792;10.938;2023-05-29T09:50:43;62.72;34.41;77.73;;
72160;Laerm;60045;51.792;10.938;2023-05-29T09:53:19;60.64;36.05;77.86;;
72160;Laerm;60045;51.792;10.938;2023-05-29T09:55:46;62.56;37.97;75.09;;
72160;Laerm;60045;51.792;10.938;2023-05-29T09:58:13;62.63;38.17;72.19;;
72160;Laerm;60045;51.792;10.938;2023-05-29T10:00:40;61.51;37.92;71.65;;
72160;Laerm;60045;51.792;10.938;2023-05-29T10:03:06;60.67;38.27;72.26;;
72160;Laerm;60045;51.792;10.938;2023-05-29T10:05:32;60.49;36.59;70.74;;
72160;Laerm;60045;51.792;10.938;2023-05-29T10:07:58;62.04;37.24;72.56;;
72160;Laerm;60045;51.792;10.938;2023-05-29T10:10:27;64.27;39.61;80.62;;
72160;Laerm;60045;51.792;10.938;2023-05-29T10:12:54;62.02;40.19;74.24;;
72160;Laerm;60045;51.792;10.938;2023-05-29T10:15:22;62.84;35.07;74.95;;
72160;Laerm;60045;51.792;10.938;2023-05-29T10:18:00;60.31;35.69;73.24;;
72160;Laerm;60045;51.792;10.938;2023-05-29T10:20:28;59.35;33.87;72.42;;
72160;Laerm;60045;51.792;10.938;2023-05-29T10:22:54;60.10;38.38;71.38;;
72160;Laerm;60045;51.792;10.938;2023-05-29T10:25:21;67.09;39.10;83.57;;
72160;Laerm;60045;51.792;10.938;2023-05-29T10:27:47;59.57;38.29;72.13;;
72160;Laerm;60045;51.792;10.938;2023-05-29T10:30:16;62.99;33.53;77.50;;
72160;Laerm;60045;51.792;10.938;2023-05-29T10:32:52;66.51;40.26;82.09;;
72160;Laerm;60045;51.792;10.938;2023-05-29T10:35:31;58.07;36.53;69.19;;
72160;Laerm;60045;51.792;10.938;2023-05-29T10:38:02;63.12;38.94;78.41;;
72160;Laerm;60045;51.792;10.938;2023-05-29T10:40:34;60.84;36.36;74.24;;
72160;Laerm;60045;51.792;10.938;2023-05-29T10:43:00;61.00;36.91;73.31;;
72160;Laerm;60045;51.792;10.938;2023-05-29T10:50:40;63.78;35.38;75.24;;
72160;Laerm;60045;51.792;10.938;2023-05-29T10:53:07;59.58;35.27;70.84;;
72160;Laerm;60045;51.792;10.938;2023-05-29T10:55:35;63.55;37.29;78.24;;
72160;Laerm;60045;51.792;10.938;2023-05-29T10:58:07;59.84;37.19;70.91;;
72160;Laerm;60045;51.792;10.938;2023-05-29T11:00:33;61.38;38.87;72.68;;
72160;Laerm;60045;51.792;10.938;2023-05-29T11:03:04;61.29;36.42;74.32;;
72160;Laerm;60045;51.792;10.938;2023-05-29T11:05:32;60.38;35.59;69.83;;
72160;Laerm;60045;51.792;10.938;2023-05-29T11:07:58;62.42;35.24;78.31;;
72160;Laerm;60045;51.792;10.938;2023-05-29T11:13:09;64.80;41.14;81.38;;
72160;Laerm;60045;51.792;10.938;2023-05-29T11:15:36;63.69;37.58;76.73;;
72160;Laerm;60045;51.792;10.938;2023-05-29T11:18:07;61.21;40.92;72.69;;
72160;Laerm;60045;51.792;10.938;2023-05-29T11:20:37;64.86;39.56;79.09;;
72160;Laerm;60045;51.792;10.938;2023-05-29T11:23:06;61.72;37.54;72.82;;
72160;Laerm;60045;51.792;10.938;2023-05-29T11:25:36;61.07;34.26;73.14;;
72160;Laerm;60045;51.792;10.938;2023-05-29T11:28:02;64.62;40.38;79.15;;
72160;Laerm;60045;51.792;10.938;2023-05-29T11:30:29;60.76;36.99;71.51;;
72160;Laerm;60045;51.792;10.938;2023-05-29T11:32:55;60.61;38.64;70.68;;
72160;Laerm;60045;51.792;10.938;2023-05-29T11:35:26;60.93;38.41;75.70;;
72160;Laerm;60045;51.792;10.938;2023-05-29T11:37:54;62.02;38.50;74.01;;
72160;Laerm;60045;51.792;10.938;2023-05-29T11:40:22;60.26;36.53;71.69;;
72160;Laerm;60045;51.792;10.938;2023-05-29T11:42:48;59.91;35.27;73.12;;
72160;Laerm;60045;51.792;10.938;2023-05-29T11:45:14;62.27;36.83;71.77;;
72160;Laerm;60045;51.792;10.938;2023-05-29T11:47:56;62.18;36.26;71.65;;
72160;Laerm;60045;51.792;10.938;2023-05-29T11:50:23;61.68;39.53;75.42;;
72160;Laerm;60045;51.792;10.938;2023-05-29T11:52:49;64.09;39.60;78.08;;
72160;Laerm;60045;51.792;10.938;2023-05-29T11:55:16;60.52;33.90;73.80;;
72160;Laerm;60045;51.792;10.938;2023-05-29T11:57:42;61.91;39.69;70.37;;
72160;Laerm;60045;51.792;10.938;2023-05-29T12:00:11;59.50;37.39;71.44;;
72160;Laerm;60045;51.792;10.938;2023-05-29T12:02:37;61.24;41.08;77.14;;
72160;Laerm;60045;51.792;10.938;2023-05-29T12:05:04;60.18;39.84;70.86;;
72160;Laerm;60045;51.792;10.938;2023-05-29T12:07:31;74.63;37.21;94.98;;
72160;Laerm;60045;51.792;10.938;2023-05-29T12:10:07;61.46;40.68;70.97;;
72160;Laerm;60045;51.792;10.938;2023-05-29T12:12:34;64.85;41.80;77.22;;
72160;Laerm;60045;51.792;10.938;2023-05-29T12:15:00;65.43;36.28;81.50;;
72160;Laerm;60045;51.792;10.938;2023-05-29T12:17:30;63.46;39.41;77.13;;
72160;Laerm;60045;51.792;10.938;2023-05-29T12:19:56;59.39;35.18;72.46;;
72160;Laerm;60045;51.792;10.938;2023-05-29T12:22:34;67.36;37.21;84.31;;
72160;Laerm;60045;51.792;10.938;2023-05-29T12:25:13;67.22;37.61;81.88;;
72160;Laerm;60045;51.792;10.938;2023-05-29T12:27:39;62.35;36.47;72.97;;
72160;Laerm;60045;51.792;10.938;2023-05-29T12:30:29;69.40;37.63;89.57;;
72160;Laerm;60045;51.792;10.938;2023-05-29T12:32:54;67.10;40.71;86.58;;
72160;Laerm;60045;51.792;10.938;2023-05-29T12:35:23;68.45;39.50;88.19;;
72160;Laerm;60045;51.792;10.938;2023-05-29T12:37:56;67.22;42.02;81.88;;
72160;Laerm;60045;51.792;10.938;2023-05-29T12:42:48;68.06;40.37;85.72;;
72160;Laerm;60045;51.792;10.938;2023-05-29T12:45:14;65.72;38.86;82.20;;
72160;Laerm;60045;51.792;10.938;2023-05-29T12:47:50;61.62;39.17;70.96;;
72160;Laerm;60045;51.792;10.938;2023-05-29T12:50:22;62.97;38.01;77.58;;
72160;Laerm;60045;51.792;10.938;2023-05-29T12:52:52;60.71;36.59;70.40;;
72160;Laerm;60045;51.792;10.938;2023-05-29T12:55:18;63.74;36.50;81.12;;
72160;Laerm;60045;51.792;10.938;2023-05-29T12:57:44;64.01;38.00;74.01;;
72160;Laerm;60045;51.792;10.938;2023-05-29T13:00:11;63.88;35.12;73.39;;
72160;Laerm;60045;51.792;10.938;2023-05-29T13:02:37;59.93;33.87;71.77;;
72160;Laerm;60045;51.792;10.938;2023-05-29T13:05:03;58.02;34.90;71.38;;
72160;Laerm;60045;51.792;10.938;2023-05-29T13:07:28;63.38;37.07;81.51;;
72160;Laerm;60045;51.792;10.938;2023-05-29T13:09:55;57.79;35.36;68.31;;
72160;Laerm;60045;51.792;10.938;2023-05-29T13:12:21;60.84;35.96;71.78;;
72160;Laerm;60045;51.792;10.938;2023-05-29T13:14:47;59.14;36.02;70.64;;
72160;Laerm;60045;51.792;10.938;2023-05-29T13:17:12;62.55;38.28;73.24;;
72160;Laerm;60045;51.792;10.938;2023-05-29T13:19:38;62.88;36.47;77.35;;
72160;Laerm;60045;51.792;10.938;2023-05-29T13:22:04;63.27;34.31;81.08;;
72160;Laerm;60045;51.792;10.938;2023-05-29T13:24:30;64.85;37.39;78.73;;
72160;Laerm;60045;51.792;10.938;2023-05-29T13:26:56;63.10;34.28;77.26;;
72160;Laerm;60045;51.792;10.938;2023-05-29T13:29:21;64.55;39.40;76.57;;
72160;Laerm;60045;51.792;10.938;2023-05-29T13:31:47;61.53;34.45;76.02;;
72160;Laerm;60045;51.792;10.938;2023-05-29T13:34:13;57.85;35.05;69.86;;
72160;Laerm;60045;51.792;10.938;2023-05-29T13:36:38;63.36;36.64;77.23;;
72160;Laerm;60045;51.792;10.938;2023-05-29T13:39:04;63.98;38.19;83.65;;
72160;Laerm;60045;51.792;10.938;2023-05-29T13:41:31;60.22;35.24;71.11;;
72160;Laerm;60045;51.792;10.938;2023-05-29T13:43:57;65.09;37.93;87.86;;
72160;Laerm;60045;51.792;10.938;2023-05-29T13:46:23;61.64;39.85;70.85;;
72160;Laerm;60045;51.792;10.938;2023-05-29T13:48:48;59.77;38.53;68.67;;